sensor_id;sensor_type;location;lat;lon;timestamp;P1;durP1;ratioP1;P2;durP2;ratioP2
76846;SDS011;65813;49.546;8.644;2023-07-29T03:47:58;4.70;;;1.30;;
76846;SDS011;65813;49.546;8.644;2023-07-29T03:51:58;3.57;;;1.50;;
76846;SDS011;65813;49.546;8.644;2023-07-29T03:55:58;2.90;;;1.20;;
76846;SDS011;65813;49.546;8.644;2023-07-29T03:59:59;2.38;;;1.30;;
76846;SDS011;65813;49.546;8.644;2023-07-29T04:03:59;3.03;;;1.10;;
76846;SDS011;65813;49.546;8.644;2023-07-29T04:07:59;2.43;;;1.23;;
76846;SDS011;65813;49.546;8.644;2023-07-29T04:12:00;3.63;;;1.30;;
76846;SDS011;65813;49.546;8.644;2023-07-29T04:16:00;2.70;;;1.33;;
76846;SDS011;65813;49.546;8.644;2023-07-29T04:20:00;3.53;;;1.53;;
76846;SDS011;65813;49.546;8.644;2023-07-29T04:24:01;3.60;;;1.40;;
76846;SDS011;65813;49.546;8.644;2023-07-29T04:28:01;2.53;;;1.30;;
76846;SDS011;65813;49.546;8.644;2023-07-29T04:32:03;4.53;;;1.30;;
76846;SDS011;65813;49.546;8.644;2023-07-29T04:36:04;3.35;;;1.50;;
76846;SDS011;65813;49.546;8.644;2023-07-29T04:40:04;3.45;;;1.30;;
76846;SDS011;65813;49.546;8.644;2023-07-29T04:44:05;4.32;;;1.67;;
76846;SDS011;65813;49.546;8.644;2023-07-29T04:48:05;2.65;;;1.40;;
76846;SDS011;65813;49.546;8.644;2023-07-29T04:52:06;3.50;;;1.90;;
76846;SDS011;65813;49.546;8.644;2023-07-29T04:56:06;5.53;;;1.80;;
76846;SDS011;65813;49.546;8.644;2023-07-29T05:00:07;4.53;;;1.73;;
76846;SDS011;65813;49.546;8.644;2023-07-29T05:04:07;3.85;;;1.60;;
76846;SDS011;65813;49.546;8.644;2023-07-29T05:08:08;3.08;;;1.65;;
76846;SDS011;65813;49.546;8.644;2023-07-29T05:12:08;3.20;;;1.70;;
76846;SDS011;65813;49.546;8.644;2023-07-29T05:16:09;4.80;;;1.80;;
76846;SDS011;65813;49.546;8.644;2023-07-29T05:20:09;3.97;;;1.63;;
76846;SDS011;65813;49.546;8.644;2023-07-29T05:24:10;3.50;;;1.45;;
76846;SDS011;65813;49.546;8.644;2023-07-29T05:28:10;3.30;;;1.63;;
76846;SDS011;65813;49.546;8.644;2023-07-29T05:32:10;3.53;;;1.90;;
76846;SDS011;65813;49.546;8.644;2023-07-29T05:36:11;3.83;;;1.47;;
76846;SDS011;65813;49.546;8.644;2023-07-29T05:40:11;2.93;;;1.60;;
76846;SDS011;65813;49.546;8.644;2023-07-29T05:44:11;2.50;;;1.30;;
76846;SDS011;65813;49.546;8.644;2023-07-29T05:48:12;3.63;;;1.23;;
76846;SDS011;65813;49.546;8.644;2023-07-29T05:52:12;2.40;;;1.10;;
76846;SDS011;65813;49.546;8.644;2023-07-29T05:56:12;2.70;;;1.40;;
76846;SDS011;65813;49.546;8.644;2023-07-29T06:00:13;4.23;;;1.70;;
76846;SDS011;65813;49.546;8.644;2023-07-29T06:04:13;3.05;;;1.40;;
76846;SDS011;65813;49.546;8.644;2023-07-29T06:08:13;3.63;;;1.80;;
76846;SDS011;65813;49.546;8.644;2023-07-29T06:12:14;3.93;;;1.70;;
76846;SDS011;65813;49.546;8.644;2023-07-29T06:16:14;3.47;;;1.60;;
76846;SDS011;65813;49.546;8.644;2023-07-29T06:20:14;2.80;;;1.50;;
76846;SDS011;65813;49.546;8.644;2023-07-29T06:24:15;3.30;;;1.60;;
76846;SDS011;65813;49.546;8.644;2023-07-29T06:28:15;3.43;;;1.50;;
76846;SDS011;65813;49.546;8.644;2023-07-29T06:32:15;3.23;;;1.47;;
76846;SDS011;65813;49.546;8.644;2023-07-29T06:36:15;2.60;;;1.60;;
76846;SDS011;65813;49.546;8.644;2023-07-29T06:40:16;2.87;;;1.57;;
76846;SDS011;65813;49.546;8.644;2023-07-29T06:44:16;4.35;;;2.53;;
76846;SDS011;65813;49.546;8.644;2023-07-29T06:48:17;4.45;;;1.90;;
76846;SDS011;65813;49.546;8.644;2023-07-29T06:52:18;4.28;;;2.45;;
76846;SDS011;65813;49.546;8.644;2023-07-29T06:56:19;4.00;;;2.10;;
76846;SDS011;65813;49.546;8.644;2023-07-29T07:00:19;5.13;;;2.40;;
76846;SDS011;65813;49.546;8.644;2023-07-29T07:04:19;3.60;;;1.87;;
76846;SDS011;65813;49.546;8.644;2023-07-29T07:08:20;3.28;;;1.98;;
76846;SDS011;65813;49.546;8.644;2023-07-29T07:12:20;4.90;;;2.23;;
76846;SDS011;65813;49.546;8.644;2023-07-29T07:16:20;5.10;;;2.30;;
76846;SDS011;65813;49.546;8.644;2023-07-29T07:20:21;3.67;;;2.10;;
76846;SDS011;65813;49.546;8.644;2023-07-29T07:24:21;4.80;;;2.03;;
76846;SDS011;65813;49.546;8.644;2023-07-29T07:28:22;4.65;;;2.20;;
76846;SDS011;65813;49.546;8.644;2023-07-29T07:32:22;4.65;;;2.50;;
76846;SDS011;65813;49.546;8.644;2023-07-29T07:36:23;5.93;;;2.97;;
76846;SDS011;65813;49.546;8.644;2023-07-29T07:40:23;4.60;;;2.40;;
76846;SDS011;65813;49.546;8.644;2023-07-29T07:44:23;5.68;;;2.67;;
76846;SDS011;65813;49.546;8.644;2023-07-29T07:48:26;4.32;;;2.50;;
76846;SDS011;65813;49.546;8.644;2023-07-29T07:52:27;4.10;;;2.08;;
76846;SDS011;65813;49.546;8.644;2023-07-29T07:56:28;5.20;;;2.40;;
76846;SDS011;65813;49.546;8.644;2023-07-29T08:00:28;3.63;;;2.23;;
76846;SDS011;65813;49.546;8.644;2023-07-29T08:04:28;5.50;;;2.47;;
76846;SDS011;65813;49.546;8.644;2023-07-29T08:08:29;4.07;;;1.97;;
76846;SDS011;65813;49.546;8.644;2023-07-29T08:12:29;9.53;;;2.60;;
76846;SDS011;65813;49.546;8.644;2023-07-29T08:16:29;5.03;;;2.60;;
76846;SDS011;65813;49.546;8.644;2023-07-29T08:20:30;6.07;;;2.50;;
76846;SDS011;65813;49.546;8.644;2023-07-29T08:24:31;5.80;;;2.70;;
76846;SDS011;65813;49.546;8.644;2023-07-29T08:28:32;5.23;;;2.70;;
76846;SDS011;65813;49.546;8.644;2023-07-29T08:32:33;5.82;;;2.95;;
76846;SDS011;65813;49.546;8.644;2023-07-29T08:36:34;5.63;;;2.70;;
76846;SDS011;65813;49.546;8.644;2023-07-29T08:40:34;6.10;;;2.40;;
76846;SDS011;65813;49.546;8.644;2023-07-29T08:44:41;5.40;;;2.92;;
76846;SDS011;65813;49.546;8.644;2023-07-29T08:48:43;4.68;;;2.50;;
76846;SDS011;65813;49.546;8.644;2023-07-29T08:52:43;4.10;;;2.20;;
76846;SDS011;65813;49.546;8.644;2023-07-29T08:56:45;4.63;;;2.40;;
76846;SDS011;65813;49.546;8.644;2023-07-29T09:00:46;3.63;;;2.45;;
76846;SDS011;65813;49.546;8.644;2023-07-29T09:04:48;5.75;;;2.78;;
76846;SDS011;65813;49.546;8.644;2023-07-29T09:08:49;4.47;;;2.80;;
76846;SDS011;65813;49.546;8.644;2023-07-29T09:12:52;6.68;;;2.58;;
76846;SDS011;65813;49.546;8.644;2023-07-29T09:16:53;5.53;;;2.88;;
76846;SDS011;65813;49.546;8.644;2023-07-29T09:20:53;3.80;;;1.90;;
76846;SDS011;65813;49.546;8.644;2023-07-29T09:24:54;3.13;;;1.77;;
76846;SDS011;65813;49.546;8.644;2023-07-29T09:28:57;4.85;;;1.95;;
76846;SDS011;65813;49.546;8.644;2023-07-29T09:32:59;5.38;;;2.20;;
76846;SDS011;65813;49.546;8.644;2023-07-29T09:37:01;4.63;;;2.30;;
76846;SDS011;65813;49.546;8.644;2023-07-29T09:41:02;4.35;;;2.30;;
76846;SDS011;65813;49.546;8.644;2023-07-29T09:45:02;4.70;;;2.40;;
76846;SDS011;65813;49.546;8.644;2023-07-29T09:49:06;3.65;;;2.33;;
76846;SDS011;65813;49.546;8.644;2023-07-29T09:53:07;3.97;;;2.10;;
76846;SDS011;65813;49.546;8.644;2023-07-29T09:57:08;4.47;;;2.27;;
76846;SDS011;65813;49.546;8.644;2023-07-29T10:01:08;4.05;;;2.17;;
76846;SDS011;65813;49.546;8.644;2023-07-29T10:05:09;4.10;;;2.13;;
76846;SDS011;65813;49.546;8.644;2023-07-29T10:09:11;4.35;;;2.20;;
76846;SDS011;65813;49.546;8.644;2023-07-29T10:13:12;4.78;;;2.30;;
76846;SDS011;65813;49.546;8.644;2023-07-29T10:17:13;4.32;;;2.38;;
76846;SDS011;65813;49.546;8.644;2023-07-29T10:21:15;6.30;;;2.00;;
76846;SDS011;65813;49.546;8.644;2023-07-29T10:25:17;3.88;;;1.98;;
76846;SDS011;65813;49.546;8.644;2023-07-29T10:29:21;3.40;;;2.17;;
76846;SDS011;65813;49.546;8.644;2023-07-29T10:33:24;4.00;;;2.00;;
76846;SDS011;65813;49.546;8.644;2023-07-29T10:37:25;4.30;;;1.80;;
76846;SDS011;65813;49.546;8.644;2023-07-29T10:41:48;3.10;;;2.00;;
76846;SDS011;65813;49.546;8.644;2023-07-29T10:46:15;6.78;;;2.33;;
76846;SDS011;65813;49.546;8.644;2023-07-29T10:50:21;3.00;;;1.73;;
76846;SDS011;65813;49.546;8.644;2023-07-29T10:54:22;3.78;;;1.80;;
76846;SDS011;65813;49.546;8.644;2023-07-29T10:58:23;2.88;;;1.60;;
76846;SDS011;65813;49.546;8.644;2023-07-29T11:02:30;3.97;;;2.00;;
76846;SDS011;65813;49.546;8.644;2023-07-29T11:06:33;3.10;;;2.00;;
76846;SDS011;65813;49.546;8.644;2023-07-29T11:11:07;3.20;;;1.85;;
76846;SDS011;65813;49.546;8.644;2023-07-29T11:15:14;3.92;;;1.90;;
76846;SDS011;65813;49.546;8.644;2023-07-29T11:19:25;3.60;;;1.95;;
76846;SDS011;65813;49.546;8.644;2023-07-29T11:27:29;3.92;;;2.00;;
76846;SDS011;65813;49.546;8.644;2023-07-29T11:31:39;4.23;;;2.40;;
76846;SDS011;65813;49.546;8.644;2023-07-29T11:35:40;3.92;;;2.00;;
76846;SDS011;65813;49.546;8.644;2023-07-29T11:39:40;3.53;;;2.10;;
76846;SDS011;65813;49.546;8.644;2023-07-29T11:43:41;4.00;;;2.10;;
76846;SDS011;65813;49.546;8.644;2023-07-29T11:47:43;3.67;;;2.20;;
76846;SDS011;65813;49.546;8.644;2023-07-29T11:51:43;4.35;;;2.03;;
76846;SDS011;65813;49.546;8.644;2023-07-29T11:55:44;3.20;;;1.50;;
76846;SDS011;65813;49.546;8.644;2023-07-29T11:59:44;3.78;;;1.80;;
76846;SDS011;65813;49.546;8.644;2023-07-29T12:03:46;3.03;;;1.70;;
76846;SDS011;65813;49.546;8.644;2023-07-29T12:07:47;3.70;;;1.77;;
76846;SDS011;65813;49.546;8.644;2023-07-29T12:11:47;3.03;;;1.60;;
76846;SDS011;65813;49.546;8.644;2023-07-29T12:15:47;5.03;;;1.90;;
76846;SDS011;65813;49.546;8.644;2023-07-29T12:19:48;3.53;;;1.60;;
76846;SDS011;65813;49.546;8.644;2023-07-29T12:23:49;3.63;;;1.50;;
76846;SDS011;65813;49.546;8.644;2023-07-29T12:27:51;3.30;;;1.60;;
76846;SDS011;65813;49.546;8.644;2023-07-29T12:31:58;6.10;;;1.73;;
76846;SDS011;65813;49.546;8.644;2023-07-29T12:36:00;3.28;;;1.50;;
76846;SDS011;65813;49.546;8.644;2023-07-29T12:40:01;4.03;;;1.60;;
76846;SDS011;65813;49.546;8.644;2023-07-29T12:44:02;3.42;;;1.70;;
76846;SDS011;65813;49.546;8.644;2023-07-29T12:48:02;2.72;;;1.50;;
76846;SDS011;65813;49.546;8.644;2023-07-29T12:52:03;2.90;;;1.40;;
76846;SDS011;65813;49.546;8.644;2023-07-29T12:56:03;3.92;;;1.50;;
76846;SDS011;65813;49.546;8.644;2023-07-29T13:00:04;2.80;;;1.60;;
76846;SDS011;65813;49.546;8.644;2023-07-29T13:04:05;2.92;;;1.60;;
76846;SDS011;65813;49.546;8.644;2023-07-29T13:08:05;4.67;;;1.80;;
76846;SDS011;65813;49.546;8.644;2023-07-29T13:12:05;4.17;;;1.60;;
76846;SDS011;65813;49.546;8.644;2023-07-29T13:16:06;3.95;;;1.52;;
76846;SDS011;65813;49.546;8.644;2023-07-29T13:20:06;3.10;;;1.60;;
76846;SDS011;65813;49.546;8.644;2023-07-29T13:24:07;4.82;;;1.73;;
76846;SDS011;65813;49.546;8.644;2023-07-29T13:28:11;2.77;;;1.53;;
76846;SDS011;65813;49.546;8.644;2023-07-29T13:32:13;2.88;;;1.50;;
76846;SDS011;65813;49.546;8.644;2023-07-29T13:36:13;3.43;;;1.60;;
76846;SDS011;65813;49.546;8.644;2023-07-29T13:40:16;3.27;;;1.60;;
76846;SDS011;65813;49.546;8.644;2023-07-29T13:44:17;3.08;;;1.55;;
76846;SDS011;65813;49.546;8.644;2023-07-29T13:48:17;4.00;;;1.50;;
76846;SDS011;65813;49.546;8.644;2023-07-29T13:52:18;2.78;;;1.50;;
76846;SDS011;65813;49.546;8.644;2023-07-29T13:56:19;3.50;;;1.60;;
76846;SDS011;65813;49.546;8.644;2023-07-29T14:00:19;2.70;;;1.40;;
76846;SDS011;65813;49.546;8.644;2023-07-29T14:04:20;2.92;;;1.50;;
76846;SDS011;65813;49.546;8.644;2023-07-29T14:08:20;3.50;;;1.87;;
76846;SDS011;65813;49.546;8.644;2023-07-29T14:12:22;4.32;;;1.50;;
76846;SDS011;65813;49.546;8.644;2023-07-29T14:16:23;3.20;;;1.70;;
76846;SDS011;65813;49.546;8.644;2023-07-29T14:20:23;2.92;;;1.50;;
76846;SDS011;65813;49.546;8.644;2023-07-29T14:24:24;2.93;;;1.57;;
76846;SDS011;65813;49.546;8.644;2023-07-29T14:28:24;4.15;;;1.80;;
76846;SDS011;65813;49.546;8.644;2023-07-29T14:32:24;3.00;;;1.60;;
76846;SDS011;65813;49.546;8.644;2023-07-29T14:36:25;2.87;;;1.40;;
76846;SDS011;65813;49.546;8.644;2023-07-29T14:40:25;3.35;;;1.50;;
76846;SDS011;65813;49.546;8.644;2023-07-29T14:44:27;3.08;;;1.60;;
76846;SDS011;65813;49.546;8.644;2023-07-29T14:48:27;2.38;;;1.45;;
76846;SDS011;65813;49.546;8.644;2023-07-29T14:52:27;3.40;;;1.55;;
76846;SDS011;65813;49.546;8.644;2023-07-29T14:56:28;3.73;;;1.63;;
76846;SDS011;65813;49.546;8.644;2023-07-29T15:00:28;2.93;;;1.50;;
76846;SDS011;65813;49.546;8.644;2023-07-29T15:04:28;2.65;;;1.48;;
76846;SDS011;65813;49.546;8.644;2023-07-29T15:08:29;2.80;;;1.40;;
76846;SDS011;65813;49.546;8.644;2023-07-29T15:12:29;3.57;;;1.60;;
76846;SDS011;65813;49.546;8.644;2023-07-29T15:16:29;3.03;;;1.60;;
76846;SDS011;65813;49.546;8.644;2023-07-29T15:20:30;4.83;;;1.70;;
76846;SDS011;65813;49.546;8.644;2023-07-29T15:24:30;3.45;;;1.77;;
76846;SDS011;65813;49.546;8.644;2023-07-29T15:28:31;2.70;;;1.50;;
76846;SDS011;65813;49.546;8.644;2023-07-29T15:32:31;3.90;;;1.63;;
76846;SDS011;65813;49.546;8.644;2023-07-29T15:36:31;3.10;;;1.60;;
76846;SDS011;65813;49.546;8.644;2023-07-29T15:40:32;3.45;;;1.90;;
76846;SDS011;65813;49.546;8.644;2023-07-29T15:44:32;3.83;;;1.65;;
76846;SDS011;65813;49.546;8.644;2023-07-29T15:48:32;4.43;;;1.70;;
76846;SDS011;65813;49.546;8.644;2023-07-29T15:52:33;3.13;;;1.50;;
76846;SDS011;65813;49.546;8.644;2023-07-29T15:56:33;3.08;;;1.50;;
76846;SDS011;65813;49.546;8.644;2023-07-29T16:00:36;3.30;;;1.73;;
76846;SDS011;65813;49.546;8.644;2023-07-29T16:04:36;3.37;;;1.50;;
76846;SDS011;65813;49.546;8.644;2023-07-29T16:08:36;3.40;;;1.80;;
76846;SDS011;65813;49.546;8.644;2023-07-29T16:12:37;2.80;;;1.40;;
76846;SDS011;65813;49.546;8.644;2023-07-29T16:16:38;3.42;;;1.77;;
76846;SDS011;65813;49.546;8.644;2023-07-29T16:20:38;3.80;;;1.90;;
76846;SDS011;65813;49.546;8.644;2023-07-29T16:24:38;3.20;;;1.50;;
76846;SDS011;65813;49.546;8.644;2023-07-29T16:28:39;3.37;;;1.60;;
76846;SDS011;65813;49.546;8.644;2023-07-29T16:32:41;4.68;;;1.80;;
76846;SDS011;65813;49.546;8.644;2023-07-29T16:36:41;4.43;;;2.00;;
76846;SDS011;65813;49.546;8.644;2023-07-29T16:40:41;3.53;;;1.60;;
76846;SDS011;65813;49.546;8.644;2023-07-29T16:44:42;3.40;;;1.60;;
76846;SDS011;65813;49.546;8.644;2023-07-29T16:48:42;3.15;;;1.70;;
76846;SDS011;65813;49.546;8.644;2023-07-29T16:52:43;3.20;;;1.50;;
76846;SDS011;65813;49.546;8.644;2023-07-29T16:56:48;4.05;;;1.80;;
76846;SDS011;65813;49.546;8.644;2023-07-29T17:00:48;3.10;;;2.00;;
76846;SDS011;65813;49.546;8.644;2023-07-29T17:04:49;3.38;;;1.60;;
76846;SDS011;65813;49.546;8.644;2023-07-29T17:08:49;3.20;;;1.60;;
76846;SDS011;65813;49.546;8.644;2023-07-29T17:12:50;4.97;;;2.00;;
76846;SDS011;65813;49.546;8.644;2023-07-29T17:16:50;4.03;;;1.90;;
76846;SDS011;65813;49.546;8.644;2023-07-29T17:20:50;3.27;;;1.80;;
76846;SDS011;65813;49.546;8.644;2023-07-29T17:24:51;3.50;;;1.95;;
76846;SDS011;65813;49.546;8.644;2023-07-29T17:28:51;3.22;;;1.70;;
76846;SDS011;65813;49.546;8.644;2023-07-29T17:32:52;3.13;;;1.90;;
76846;SDS011;65813;49.546;8.644;2023-07-29T17:36:52;3.03;;;1.60;;
76846;SDS011;65813;49.546;8.644;2023-07-29T17:40:52;3.87;;;1.67;;
76846;SDS011;65813;49.546;8.644;2023-07-29T17:44:55;3.08;;;1.50;;
76846;SDS011;65813;49.546;8.644;2023-07-29T17:48:55;3.57;;;1.57;;
76846;SDS011;65813;49.546;8.644;2023-07-29T17:52:56;4.07;;;1.80;;
76846;SDS011;65813;49.546;8.644;2023-07-29T17:56:58;3.45;;;1.60;;
76846;SDS011;65813;49.546;8.644;2023-07-29T18:00:58;3.03;;;1.60;;
76846;SDS011;65813;49.546;8.644;2023-07-29T18:04:58;4.40;;;1.97;;
76846;SDS011;65813;49.546;8.644;2023-07-29T18:09:00;3.50;;;1.80;;
76846;SDS011;65813;49.546;8.644;2023-07-29T18:13:00;3.97;;;1.80;;
76846;SDS011;65813;49.546;8.644;2023-07-29T18:17:01;7.10;;;4.32;;
76846;SDS011;65813;49.546;8.644;2023-07-29T18:21:01;5.27;;;2.27;;
76846;SDS011;65813;49.546;8.644;2023-07-29T18:25:01;4.03;;;2.10;;
76846;SDS011;65813;49.546;8.644;2023-07-29T18:29:02;3.72;;;2.00;;
76846;SDS011;65813;49.546;8.644;2023-07-29T18:33:03;3.70;;;2.00;;
76846;SDS011;65813;49.546;8.644;2023-07-29T18:37:04;3.53;;;1.77;;
76846;SDS011;65813;49.546;8.644;2023-07-29T18:41:04;4.57;;;1.90;;
76846;SDS011;65813;49.546;8.644;2023-07-29T18:45:05;3.40;;;1.80;;
76846;SDS011;65813;49.546;8.644;2023-07-29T18:49:06;3.90;;;1.90;;
76846;SDS011;65813;49.546;8.644;2023-07-29T18:53:08;5.95;;;2.10;;
76846;SDS011;65813;49.546;8.644;2023-07-29T18:57:08;4.25;;;2.10;;
76846;SDS011;65813;49.546;8.644;2023-07-29T19:01:08;3.80;;;1.80;;
76846;SDS011;65813;49.546;8.644;2023-07-29T19:05:10;4.93;;;2.20;;
76846;SDS011;65813;49.546;8.644;2023-07-29T19:09:13;4.20;;;2.00;;
76846;SDS011;65813;49.546;8.644;2023-07-29T19:13:13;4.10;;;2.30;;
76846;SDS011;65813;49.546;8.644;2023-07-29T19:17:14;5.00;;;2.60;;
76846;SDS011;65813;49.546;8.644;2023-07-29T19:21:15;4.75;;;2.00;;
76846;SDS011;65813;49.546;8.644;2023-07-29T19:25:16;3.78;;;2.10;;
76846;SDS011;65813;49.546;8.644;2023-07-29T19:29:16;3.77;;;2.00;;
76846;SDS011;65813;49.546;8.644;2023-07-29T19:33:17;4.28;;;2.20;;
76846;SDS011;65813;49.546;8.644;2023-07-29T19:37:17;4.53;;;2.30;;
76846;SDS011;65813;49.546;8.644;2023-07-29T19:41:17;5.38;;;2.25;;
76846;SDS011;65813;49.546;8.644;2023-07-29T19:45:18;4.20;;;2.13;;
76846;SDS011;65813;49.546;8.644;2023-07-29T19:49:19;4.20;;;2.30;;
76846;SDS011;65813;49.546;8.644;2023-07-29T19:53:19;4.60;;;2.20;;
76846;SDS011;65813;49.546;8.644;2023-07-29T19:57:20;4.35;;;2.35;;
76846;SDS011;65813;49.546;8.644;2023-07-29T20:01:20;4.18;;;2.28;;
76846;SDS011;65813;49.546;8.644;2023-07-29T20:05:21;4.20;;;2.70;;
76846;SDS011;65813;49.546;8.644;2023-07-29T20:09:21;4.30;;;2.30;;
76846;SDS011;65813;49.546;8.644;2023-07-29T20:13:22;4.20;;;2.47;;
76846;SDS011;65813;49.546;8.644;2023-07-29T20:17:26;6.07;;;2.30;;
76846;SDS011;65813;49.546;8.644;2023-07-29T20:21:27;4.25;;;2.35;;
76846;SDS011;65813;49.546;8.644;2023-07-29T20:25:27;4.10;;;2.10;;
76846;SDS011;65813;49.546;8.644;2023-07-29T20:29:27;6.70;;;2.40;;
76846;SDS011;65813;49.546;8.644;2023-07-29T20:33:28;4.97;;;2.20;;
76846;SDS011;65813;49.546;8.644;2023-07-29T20:37:28;5.00;;;2.43;;
76846;SDS011;65813;49.546;8.644;2023-07-29T20:41:28;4.37;;;2.17;;
76846;SDS011;65813;49.546;8.644;2023-07-29T20:45:29;4.30;;;2.40;;
76846;SDS011;65813;49.546;8.644;2023-07-29T20:49:29;5.45;;;2.50;;
76846;SDS011;65813;49.546;8.644;2023-07-29T20:53:30;5.17;;;2.80;;
76846;SDS011;65813;49.546;8.644;2023-07-29T20:57:30;5.03;;;2.60;;
76846;SDS011;65813;49.546;8.644;2023-07-29T21:01:30;3.80;;;2.30;;
76846;SDS011;65813;49.546;8.644;2023-07-29T21:05:32;5.27;;;2.63;;
76846;SDS011;65813;49.546;8.644;2023-07-29T21:09:34;5.07;;;2.30;;
76846;SDS011;65813;49.546;8.644;2023-07-29T21:13:36;4.25;;;2.38;;
76846;SDS011;65813;49.546;8.644;2023-07-29T22:03:28;6.20;;;3.85;;
76846;SDS011;65813;49.546;8.644;2023-07-29T22:07:28;7.63;;;3.60;;
76846;SDS011;65813;49.546;8.644;2023-07-29T22:11:28;6.33;;;3.50;;
76846;SDS011;65813;49.546;8.644;2023-07-29T22:15:33;15.48;;;4.78;;
